PWSweather.com
Personal Weather Stations
Station Observations
OBERT
Bodensee Hinterland, OberteuringenDE

Bodensee HinterlandOberteuringenDE

Lat: 47.714675, Lon: 9.44447

Elevation: 1427

Station Type: Wunder Weather Station

Latest ConditionsUpdated 11:34:54 PM GMT+01:01 Wednesday, Aug 15, 2018
Currently Today's Max Today's Min Today's Average
Temperature 60.6°F15.9°C 98.2°F36.8°C 51.0°F10.6°C 69.9°F21.1°C
Dew Point 58.0°F14.4°C 65.6°F18.7°C 51.0°F10.6°C 59.2°F15.1°C
Winds 2.1 mph 3.4 kmh 4.2 mph -6.8 kmh - - 0.7 mph 1.1 kmh
Wind Gusts 4.6 mph7.4 kmh 18.1 mph29.1 kmh - -
Humidity 91% 100% 31% 74%
Pressure 30.11 in1019.6 mb 30.16 in1021.3 mb 30.08 in1018.6 mb -
Hour Temp Dew Point Humidity Winds Wind Gusts Pressure Precip Precip Rate Daily Precip Total
11:34 PM 60.6°F15.9°C 58.0°F14.4°C 91% 2.1 mph 3.4 kmh 4.6 mph7.4 kmh 30.11 in1019.6 mb 0.00 in0.0 mm 0.00 in0.0 mm 0.00 in0.0 mm
11:04 PM 59.7°F15.4°C 58.7°F14.8°C 96% Calm Calm 2.5 mph4.0 kmh 30.12 in1020.0 mb 0.00 in0.0 mm 0.00 in0.0 mm 0.00 in0.0 mm
10:34 PM 60.0°F15.6°C 58.7°F14.8°C 95% Calm Calm -- 30.12 in1020.0 mb 0.00 in0.0 mm 0.00 in0.0 mm 0.00 in0.0 mm
10:04 PM 59.3°F15.2°C 59.3°F15.2°C 100% Calm Calm -- 30.12 in1020.0 mb 0.00 in0.0 mm 0.00 in0.0 mm 0.00 in0.0 mm
09:34 PM 59.1°F15.1°C 59.1°F15.1°C 100% Calm Calm -- 30.13 in1020.3 mb 0.00 in0.0 mm 0.00 in0.0 mm 0.00 in0.0 mm
09:04 PM 59.1°F15.1°C 59.1°F15.1°C 100% Calm Calm -- 30.12 in1020.0 mb 0.00 in0.0 mm 0.00 in0.0 mm 0.00 in0.0 mm
08:34 PM 61.3°F16.3°C 60.1°F15.6°C 95% Calm Calm -- 30.12 in1020.0 mb 0.00 in0.0 mm 0.00 in0.0 mm 0.00 in0.0 mm
08:04 PM 63.1°F17.3°C 59.5°F15.3°C 87% Calm Calm -- 30.11 in1019.6 mb 0.00 in0.0 mm 0.00 in0.0 mm 0.00 in0.0 mm
07:34 PM 67.4°F19.7°C 60.9°F16.1°C 79% Calm Calm -- 30.09 in1019.0 mb 0.00 in0.0 mm 0.00 in0.0 mm 0.00 in0.0 mm
07:04 PM 72.5°F22.5°C 60.3°F15.7°C 65% Calm Calm -- 30.09 in1019.0 mb 0.00 in0.0 mm 0.00 in0.0 mm 0.00 in0.0 mm
06:34 PM 78.0°F25.6°C 60.5°F15.8°C 54% Calm Calm -- 30.09 in1019.0 mb 0.00 in0.0 mm 0.00 in0.0 mm 0.00 in0.0 mm
06:04 PM 95.9°F35.5°C 65.3°F18.5°C 36% Calm Calm 3.4 mph5.5 kmh 30.08 in1018.6 mb 0.00 in0.0 mm 0.00 in0.0 mm 0.00 in0.0 mm
05:34 PM 94.1°F34.5°C 65.0°F18.3°C 38% 1.0 mph E1.6 kmh E 5.0 mph8.0 kmh 30.09 in1019.0 mb 0.00 in0.0 mm 0.00 in0.0 mm 0.00 in0.0 mm
05:04 PM 98.2°F36.8°C 62.4°F16.9°C 31% Calm Calm -- 30.09 in1019.0 mb 0.00 in0.0 mm 0.00 in0.0 mm 0.00 in0.0 mm
04:34 PM 90.3°F32.4°C 59.2°F15.1°C 35% Calm Calm 5.0 mph8.0 kmh 30.09 in1019.0 mb 0.00 in0.0 mm 0.00 in0.0 mm 0.00 in0.0 mm
04:04 PM 91.5°F33.1°C 60.1°F15.6°C 35% 3.1 mph N5.0 kmh N 4.3 mph6.9 kmh 30.10 in1019.3 mb 0.00 in0.0 mm 0.00 in0.0 mm 0.00 in0.0 mm
03:34 PM 90.6°F32.6°C 60.0°F15.6°C 36% 3.2 mph N5.1 kmh N 6.8 mph10.9 kmh 30.10 in1019.3 mb 0.00 in0.0 mm 0.00 in0.0 mm 0.00 in0.0 mm
03:04 PM 88.3°F31.3°C 59.8°F15.4°C 38% 3.2 mph N5.1 kmh N 6.2 mph10.0 kmh 30.11 in1019.6 mb 0.00 in0.0 mm 0.00 in0.0 mm 0.00 in0.0 mm
02:34 PM 83.1°F28.4°C 58.5°F14.7°C 43% 4.2 mph NW6.8 kmh NW 6.8 mph10.9 kmh 30.11 in1019.6 mb 0.00 in0.0 mm 0.00 in0.0 mm 0.00 in0.0 mm
02:04 PM 80.4°F26.9°C 60.7°F15.9°C 51% 2.8 mph WSW4.5 kmh WSW 18.1 mph29.1 kmh 30.12 in1020.0 mb 0.00 in0.0 mm 0.00 in0.0 mm 0.00 in0.0 mm
01:34 PM 84.7°F29.3°C 61.5°F16.4°C 45% 1.0 mph W1.6 kmh W 6.8 mph10.9 kmh 30.12 in1020.0 mb 0.00 in0.0 mm 0.00 in0.0 mm 0.00 in0.0 mm
01:04 PM 81.8°F27.7°C 62.6°F17.0°C 52% 1.4 mph E2.3 kmh E 7.8 mph12.6 kmh 30.13 in1020.3 mb 0.00 in0.0 mm 0.00 in0.0 mm 0.00 in0.0 mm
12:52 PM 84.5°F29.2°C 63.1°F17.3°C 48% 3.3 mph ESE5.3 kmh ESE 6.5 mph10.5 kmh 30.13 in1020.3 mb 0.00 in0.0 mm 0.00 in0.0 mm 0.00 in0.0 mm
12:22 PM 80.6°F27.0°C 65.2°F18.4°C 59% 0.4 mph N0.6 kmh N 5.6 mph9.0 kmh 30.14 in1020.7 mb 0.00 in0.0 mm 0.00 in0.0 mm 0.00 in0.0 mm
11:52 AM 77.3°F25.2°C 59.3°F15.2°C 53% 3.0 mph SW4.8 kmh SW 6.2 mph10.0 kmh 30.14 in1020.7 mb 0.00 in0.0 mm 0.00 in0.0 mm 0.00 in0.0 mm
11:22 AM 82.5°F28.1°C 61.2°F16.2°C 48% Calm Calm 3.1 mph5.0 kmh 30.14 in1020.7 mb 0.00 in0.0 mm 0.00 in0.0 mm 0.00 in0.0 mm
10:52 AM 78.9°F26.1°C 60.9°F16.1°C 54% Calm Calm 6.8 mph10.9 kmh 30.14 in1020.7 mb 0.00 in0.0 mm 0.00 in0.0 mm 0.00 in0.0 mm
10:22 AM 79.7°F26.5°C 62.5°F16.9°C 55% 3.3 mph N5.3 kmh N 4.3 mph6.9 kmh 30.15 in1021.0 mb 0.00 in0.0 mm 0.00 in0.0 mm 0.00 in0.0 mm
09:52 AM 77.7°F25.4°C 62.7°F17.1°C 60% Calm Calm 3.7 mph6.0 kmh 30.15 in1021.0 mb 0.00 in0.0 mm 0.00 in0.0 mm 0.00 in0.0 mm
09:22 AM 76.2°F24.6°C 63.7°F17.6°C 65% Calm Calm 1.8 mph2.9 kmh 30.15 in1021.0 mb 0.00 in0.0 mm 0.00 in0.0 mm 0.00 in0.0 mm
08:52 AM 74.4°F23.6°C 63.2°F17.3°C 68% Calm Calm -- 30.15 in1021.0 mb 0.00 in0.0 mm 0.00 in0.0 mm 0.00 in0.0 mm
08:22 AM 71.9°F22.2°C 62.5°F16.9°C 72% Calm Calm -- 30.15 in1021.0 mb 0.00 in0.0 mm 0.00 in0.0 mm 0.00 in0.0 mm
07:52 AM 68.7°F20.4°C 63.4°F17.4°C 83% Calm Calm 2.5 mph4.0 kmh 30.15 in1021.0 mb 0.00 in0.0 mm 0.00 in0.0 mm 0.00 in0.0 mm
07:22 AM 65.6°F18.7°C 65.6°F18.7°C 100% 1.1 mph N1.8 kmh N 2.5 mph4.0 kmh 30.16 in1021.3 mb 0.00 in0.0 mm 0.00 in0.0 mm 0.00 in0.0 mm
06:52 AM 60.0°F15.6°C 60.0°F15.6°C 100% Calm Calm -- 30.16 in1021.3 mb 0.00 in0.0 mm 0.00 in0.0 mm 0.00 in0.0 mm
06:22 AM 54.8°F12.7°C 54.8°F12.7°C 100% Calm Calm -- 30.16 in1021.3 mb 0.00 in0.0 mm 0.00 in0.0 mm 0.00 in0.0 mm
05:52 AM 51.0°F10.6°C 51.0°F10.6°C 100% Calm Calm -- 30.16 in1021.3 mb 0.00 in0.0 mm 0.00 in0.0 mm 0.00 in0.0 mm
05:22 AM 51.2°F10.7°C 51.2°F10.7°C 100% Calm Calm -- 30.15 in1021.0 mb 0.00 in0.0 mm 0.00 in0.0 mm 0.00 in0.0 mm
04:52 AM 51.6°F10.9°C 51.6°F10.9°C 100% Calm Calm -- 30.15 in1021.0 mb 0.00 in0.0 mm 0.00 in0.0 mm 0.00 in0.0 mm
04:22 AM 51.2°F10.7°C 51.2°F10.7°C 100% Calm Calm -- 30.15 in1021.0 mb 0.00 in0.0 mm 0.00 in0.0 mm 0.00 in0.0 mm
03:52 AM 53.7°F12.1°C 53.7°F12.1°C 100% Calm Calm -- 30.15 in1021.0 mb 0.00 in0.0 mm 0.00 in0.0 mm 0.00 in0.0 mm
03:22 AM 52.8°F11.6°C 52.8°F11.6°C 100% Calm Calm -- 30.14 in1020.7 mb 0.00 in0.0 mm 0.00 in0.0 mm 0.00 in0.0 mm
02:52 AM 53.7°F12.1°C 53.7°F12.1°C 100% Calm Calm -- 30.15 in1021.0 mb 0.00 in0.0 mm 0.00 in0.0 mm 0.00 in0.0 mm
02:22 AM 55.2°F12.9°C 55.2°F12.9°C 100% Calm Calm -- 30.15 in1021.0 mb 0.00 in0.0 mm 0.00 in0.0 mm 0.00 in0.0 mm
01:52 AM 55.7°F13.2°C 55.7°F13.2°C 100% Calm Calm -- 30.14 in1020.7 mb 0.00 in0.0 mm 0.00 in0.0 mm 0.00 in0.0 mm
01:22 AM 55.2°F12.9°C 55.2°F12.9°C 100% Calm Calm -- 30.14 in1020.7 mb 0.00 in0.0 mm 0.00 in0.0 mm 0.00 in0.0 mm
12:52 AM 56.3°F13.5°C 56.3°F13.5°C 100% Calm Calm -- 30.14 in1020.7 mb 0.00 in0.0 mm 0.00 in0.0 mm 0.00 in0.0 mm
12:22 AM 57.3°F14.1°C 57.3°F14.1°C 100% Calm Calm -- 30.14 in1020.7 mb 0.00 in0.0 mm 0.00 in0.0 mm 0.00 in0.0 mm